Terminal Aerodrome Forecast
Issued by NWS Duluth, MN

Home | Current Version | Previous Version | Text Only | Print | Product List | Glossary On
Versions: 1 2 3 4 5 6 7 8 9 10 11 12 13 14 15 16 17 18 19 20 21 22 23 24 25 26 27 28 29 30 31 32 33
000
FTUS43 KDLH 201500 AAB
TAFDLH
TAF AMD
KDLH 201556Z 2016/2112 33008KT P6SM OVC025
     FM201700 34012KT P6SM BKN035
     FM201900 35011KT P6SM SCT040
     FM202300 02005KT P6SM SKC
     FM210600 08007KT P6SM OVC015=

USA.gov is the U.S. government's official web portal to all federal, state and local government web resources and services.